Time;durP1;ratioP1;P1;durP2;ratioP2;P2;SDS_P1;SDS_P2;PMS_P1;PMS_P2;Temp;Humidity;BMP_temperature;BMP_pressure;BME280_temperature;BME280_humidity;BME280_pressure;Samples;Min_cycle;Max_cycle;Signal;HPM_P1;HPM_P2
2021/07/04 00:00:34;;;;;;;2.83;2.63;;;18.50;99.90;;;;;;5053073;28;20281;-68
2021/07/04 00:03:01;;;;;;;3.60;2.80;;;18.50;99.90;;;;;;5034393;28;20199;-67
2021/07/04 00:05:31;;;;;;;3.10;2.77;;;18.50;99.90;;;;;;5033123;28;20408;-67
2021/07/04 00:07:58;;;;;;;3.17;2.63;;;18.40;99.90;;;;;;5032925;28;20414;-69
2021/07/04 00:10:33;;;;;;;3.20;2.90;;;18.40;99.90;;;;;;5032780;28;20450;-68
2021/07/04 00:12:59;;;;;;;3.63;3.33;;;18.40;99.90;;;;;;5031992;28;20423;-68
2021/07/04 00:15:28;;;;;;;3.37;3.00;;;18.30;99.90;;;;;;5032884;28;20398;-68
2021/07/04 00:17:53;;;;;;;4.30;3.40;;;18.30;99.90;;;;;;5032491;28;20426;-68
2021/07/04 00:20:21;;;;;;;3.33;3.03;;;18.30;99.90;;;;;;5032872;28;20465;-68
2021/07/04 00:22:47;;;;;;;4.20;3.07;;;18.30;99.90;;;;;;5033018;28;20176;-68
2021/07/04 00:25:14;;;;;;;2.80;2.60;;;18.20;99.90;;;;;;5042128;28;20481;-68
2021/07/04 00:27:40;;;;;;;3.03;2.53;;;18.20;99.90;;;;;;5055871;28;20911;-68
2021/07/04 00:30:08;;;;;;;2.70;2.50;;;18.20;99.90;;;;;;5056470;28;20452;-67
2021/07/04 00:32:34;;;;;;;3.43;3.13;;;18.20;99.90;;;;;;5056260;28;20177;-69
2021/07/04 00:35:00;;;;;;;3.83;3.43;;;18.20;99.90;;;;;;5056565;28;20780;-68
2021/07/04 00:37:26;;;;;;;3.50;3.23;;;18.20;99.90;;;;;;5056183;28;20205;-68
2021/07/04 00:39:51;;;;;;;3.63;3.33;;;18.20;99.90;;;;;;5056245;28;20244;-69
2021/07/04 00:42:17;;;;;;;5.30;4.40;;;18.10;99.90;;;;;;5056376;28;20173;-68
2021/07/04 00:44:43;;;;;;;3.03;2.73;;;18.10;99.90;;;;;;5056380;28;20166;-68
2021/07/04 00:47:09;;;;;;;4.83;3.50;;;18.10;99.90;;;;;;5055704;28;20652;-68
2021/07/04 00:49:34;;;;;;;4.03;2.87;;;18.10;99.90;;;;;;5036390;28;20223;-68
2021/07/04 00:52:00;;;;;;;3.47;3.20;;;18.10;99.90;;;;;;5036141;28;20194;-67
2021/07/04 00:54:27;;;;;;;3.20;2.90;;;18.10;99.90;;;;;;5036140;28;20179;-68
2021/07/04 00:56:53;;;;;;;4.57;2.90;;;18.20;99.90;;;;;;5035889;28;20780;-68
2021/07/04 00:59:20;;;;;;;3.47;3.17;;;18.20;99.90;;;;;;5035665;28;20513;-68
2021/07/04 01:01:47;;;;;;;4.30;3.30;;;18.10;99.90;;;;;;5036027;28;20576;-68
2021/07/04 01:04:13;;;;;;;3.67;3.33;;;18.10;99.90;;;;;;5035959;28;20875;-68
2021/07/04 01:06:42;;;;;;;3.90;3.20;;;18.10;99.90;;;;;;5036045;28;20501;-68
2021/07/04 01:09:08;;;;;;;2.80;2.60;;;18.10;99.90;;;;;;5034062;28;20198;-68
2021/07/04 01:11:34;;;;;;;3.77;3.37;;;18.20;99.90;;;;;;5044627;28;20496;-68
2021/07/04 01:14:00;;;;;;;3.77;3.37;;;18.20;99.90;;;;;;5055731;28;20177;-68
2021/07/04 01:16:26;;;;;;;4.60;3.30;;;18.10;99.90;;;;;;5055404;28;20465;-67
2021/07/04 01:18:52;;;;;;;4.87;3.47;;;18.10;99.90;;;;;;5054936;28;20471;-67
2021/07/04 01:21:19;;;;;;;3.37;3.07;;;18.10;99.90;;;;;;5054197;28;20252;-67
2021/07/04 01:23:45;;;;;;;4.67;3.63;;;18.10;99.90;;;;;;5055467;28;20406;-67
2021/07/04 01:26:11;;;;;;;3.53;3.03;;;18.00;99.90;;;;;;5055520;28;20843;-67
2021/07/04 01:28:37;;;;;;;6.10;3.40;;;18.00;99.90;;;;;;5054843;28;20231;-68
2021/07/04 01:31:03;;;;;;;3.60;3.30;;;17.90;99.90;;;;;;5055390;28;20971;-66
2021/07/04 01:33:30;;;;;;;3.57;3.27;;;17.90;99.90;;;;;;5055248;28;20395;-66
2021/07/04 01:35:56;;;;;;;3.40;3.10;;;17.90;99.90;;;;;;5036319;28;20425;-67
2021/07/04 01:38:22;;;;;;;3.43;3.20;;;17.80;99.90;;;;;;5034023;28;20418;-68
2021/07/04 01:40:48;;;;;;;3.93;3.63;;;17.80;99.90;;;;;;5035212;28;20456;-67
2021/07/04 01:43:13;;;;;;;3.60;3.30;;;17.80;99.90;;;;;;5043887;28;20432;-67
2021/07/04 01:45:39;;;;;;;3.37;3.07;;;17.80;99.90;;;;;;5053590;28;20246;-68
2021/07/04 01:48:06;;;;;;;4.87;4.37;;;17.80;99.90;;;;;;5053584;28;20845;-69
2021/07/04 01:50:36;;;;;;;2.93;2.73;;;17.80;99.90;;;;;;5055116;28;20468;-66
2021/07/04 01:53:02;;;;;;;3.83;3.27;;;17.80;99.90;;;;;;5055065;28;20435;-68
2021/07/04 01:55:28;;;;;;;4.00;3.67;;;17.80;99.90;;;;;;5055004;28;20778;-67
2021/07/04 01:57:54;;;;;;;3.97;3.50;;;17.80;99.90;;;;;;5035676;28;20444;-68
2021/07/04 02:00:23;;;;;;;4.20;3.17;;;17.80;99.90;;;;;;5034912;28;20198;-67
2021/07/04 02:02:51;;;;;;;3.40;3.00;;;17.90;99.90;;;;;;5034866;28;20406;-68
2021/07/04 02:05:18;;;;;;;4.20;3.80;;;17.90;99.90;;;;;;5034916;28;20400;-68
2021/07/04 02:07:43;;;;;;;3.83;3.40;;;17.80;99.90;;;;;;5050952;28;20419;-68
2021/07/04 02:10:24;;;;;;;4.77;4.20;;;17.90;99.90;;;;;;5054390;28;20516;-68
2021/07/04 02:12:50;;;;;;;3.80;3.50;;;17.90;99.90;;;;;;5054725;28;20402;-68
2021/07/04 02:15:24;;;;;;;4.03;3.67;;;17.90;99.90;;;;;;5054286;28;20412;-68
2021/07/04 02:17:50;;;;;;;4.00;3.50;;;17.90;99.90;;;;;;5054155;28;20494;-68
2021/07/04 02:20:32;;;;;;;3.93;3.63;;;17.90;99.90;;;;;;5054480;28;20463;-68
2021/07/04 02:23:07;;;;;;;4.00;3.47;;;17.90;99.90;;;;;;5054290;28;20929;-68
2021/07/04 02:25:37;;;;;;;3.67;3.30;;;17.90;99.90;;;;;;5054588;28;20392;-68
2021/07/04 02:28:05;;;;;;;4.13;3.73;;;17.80;99.90;;;;;;5053864;28;20396;-67
2021/07/04 02:30:32;;;;;;;4.20;3.30;;;17.80;99.90;;;;;;5040114;28;20441;-68
2021/07/04 02:33:02;;;;;;;3.70;3.30;;;17.70;99.90;;;;;;5034152;28;20424;-68
2021/07/04 02:35:30;;;;;;;3.73;3.10;;;17.70;99.90;;;;;;5034451;28;20429;-67
2021/07/04 02:37:56;;;;;;;5.83;3.47;;;17.70;99.90;;;;;;5033660;28;20791;-67
2021/07/04 02:40:22;;;;;;;5.10;3.90;;;17.70;99.90;;;;;;5034123;28;20457;-68
2021/07/04 02:42:48;;;;;;;4.53;3.63;;;17.60;99.90;;;;;;5034249;28;20408;-67
2021/07/04 02:45:14;;;;;;;3.87;3.60;;;17.60;99.90;;;;;;5034266;28;20245;-67
2021/07/04 02:47:40;;;;;;;4.13;3.57;;;17.60;99.90;;;;;;5033476;28;20504;-68
2021/07/04 02:50:07;;;;;;;5.23;3.83;;;17.50;99.90;;;;;;5033734;28;20186;-68
2021/07/04 02:52:33;;;;;;;4.20;3.80;;;17.50;99.90;;;;;;5038167;28;20550;-68
2021/07/04 02:54:59;;;;;;;4.93;4.37;;;17.50;99.90;;;;;;5053525;28;20491;-68
2021/07/04 02:57:24;;;;;;;4.13;3.40;;;17.40;99.90;;;;;;5053287;28;20196;-68
2021/07/04 02:59:50;;;;;;;5.30;4.10;;;17.40;99.90;;;;;;5053742;28;20696;-68
2021/07/04 03:02:16;;;;;;;4.83;4.40;;;17.30;99.90;;;;;;5053029;28;20201;-69
2021/07/04 03:04:41;;;;;;;3.67;3.37;;;17.30;99.90;;;;;;5053472;28;20549;-68
2021/07/04 03:07:08;;;;;;;4.80;3.97;;;17.30;99.90;;;;;;5053241;28;20240;-67
2021/07/04 03:09:33;;;;;;;3.10;2.80;;;17.20;99.90;;;;;;5053672;28;20547;-67
2021/07/04 03:11:59;;;;;;;4.23;3.77;;;17.20;99.90;;;;;;5053445;28;20415;-67
2021/07/04 03:14:25;;;;;;;5.70;4.13;;;17.20;99.90;;;;;;5053605;28;20206;-68
2021/07/04 03:16:51;;;;;;;5.03;3.93;;;17.20;99.90;;;;;;5039707;28;20544;-67
2021/07/04 03:19:16;;;;;;;4.77;4.37;;;17.20;99.90;;;;;;5033094;28;20209;-68
2021/07/04 03:21:42;;;;;;;3.93;3.53;;;17.20;99.90;;;;;;5033440;28;20465;-68
2021/07/04 03:24:08;;;;;;;4.70;4.30;;;17.20;99.90;;;;;;5032099;28;20174;-67
2021/07/04 03:26:33;;;;;;;4.50;4.20;;;17.20;99.90;;;;;;5033464;28;20174;-69
2021/07/04 03:28:59;;;;;;;4.70;3.70;;;17.10;99.90;;;;;;5032968;28;20190;-68
2021/07/04 03:31:25;;;;;;;4.90;4.30;;;17.10;99.90;;;;;;5033487;28;20421;-68
2021/07/04 03:33:51;;;;;;;4.27;3.27;;;17.10;99.90;;;;;;5033508;28;20660;-68
2021/07/04 03:36:16;;;;;;;3.93;3.63;;;17.10;99.90;;;;;;5033251;28;20265;-68
2021/07/04 03:38:42;;;;;;;4.77;4.27;;;17.10;99.90;;;;;;5033225;28;20671;-68
2021/07/04 03:41:08;;;;;;;5.40;4.63;;;17.10;99.90;;;;;;5051894;28;20216;-68
2021/07/04 03:43:33;;;;;;;3.50;3.20;;;17.10;99.90;;;;;;5053195;28;20948;-68
2021/07/04 03:45:59;;;;;;;4.20;3.77;;;17.10;99.90;;;;;;5053232;28;20180;-68
2021/07/04 03:48:25;;;;;;;5.50;3.90;;;17.10;99.90;;;;;;5052422;28;20227;-68
2021/07/04 03:50:50;;;;;;;5.00;4.50;;;17.20;99.90;;;;;;5053258;28;20184;-68
2021/07/04 03:53:16;;;;;;;4.73;4.33;;;17.10;99.90;;;;;;5053057;28;20328;-68
2021/07/04 03:55:41;;;;;;;4.23;3.90;;;17.20;99.90;;;;;;5052866;28;20185;-68
2021/07/04 03:58:07;;;;;;;3.80;3.50;;;17.20;99.90;;;;;;5052461;28;20650;-68
2021/07/04 04:00:33;;;;;;;5.90;4.80;;;17.30;99.90;;;;;;5053149;28;20197;-68
2021/07/04 04:02:58;;;;;;;4.60;4.20;;;17.30;99.90;;;;;;5057180;28;20203;-69
2021/07/04 04:05:24;;;;;;;4.10;3.73;;;17.30;99.90;;;;;;5057150;28;20173;-68
2021/07/04 04:07:50;;;;;;;4.97;4.37;;;17.40;99.90;;;;;;5056670;28;20663;-69
2021/07/04 04:10:16;;;;;;;4.80;4.00;;;17.40;99.90;;;;;;5039078;28;20201;-68
2021/07/04 04:12:42;;;;;;;4.60;4.20;;;17.50;99.90;;;;;;5036916;28;20216;-68
2021/07/04 04:15:10;;;;;;;6.53;5.10;;;17.60;99.90;;;;;;5036993;28;20898;-68
2021/07/04 04:17:35;;;;;;;5.73;5.23;;;17.70;99.90;;;;;;5036335;28;20418;-68
2021/07/04 04:20:02;;;;;;;5.60;5.00;;;17.90;99.90;;;;;;5036808;28;20492;-68
2021/07/04 04:22:28;;;;;;;4.20;3.80;;;18.00;99.90;;;;;;5036740;28;20178;-69
2021/07/04 04:24:53;;;;;;;5.13;4.67;;;18.30;99.90;;;;;;5036552;28;20404;-68
2021/07/04 04:27:19;;;;;;;5.93;4.83;;;18.60;99.90;;;;;;5036394;28;20295;-69
2021/07/04 04:29:45;;;;;;;3.77;3.23;;;18.80;99.90;;;;;;5036415;28;20304;-68
2021/07/04 04:32:11;;;;;;;3.20;3.00;;;18.90;99.90;;;;;;5043314;28;20639;-68
2021/07/04 04:34:36;;;;;;;4.10;3.80;;;19.00;99.90;;;;;;5056633;28;20711;-68
2021/07/04 04:37:03;;;;;;;3.63;3.33;;;19.00;99.90;;;;;;5044925;28;20420;-68
2021/07/04 04:39:29;;;;;;;4.40;3.20;;;19.10;99.90;;;;;;5036093;28;20429;-68
2021/07/04 04:41:56;;;;;;;4.73;4.23;;;19.20;99.90;;;;;;5036187;28;20479;-68
2021/07/04 04:44:22;;;;;;;3.97;3.67;;;19.20;99.90;;;;;;5036419;28;20174;-68
2021/07/04 04:46:47;;;;;;;3.50;3.20;;;19.20;99.90;;;;;;5036178;28;20443;-68
2021/07/04 04:49:13;;;;;;;3.63;3.33;;;19.20;99.90;;;;;;5035840;28;20199;-68
2021/07/04 04:51:40;;;;;;;3.00;2.80;;;19.20;99.90;;;;;;5036214;28;20176;-68
2021/07/04 04:54:07;;;;;;;3.30;3.03;;;19.20;99.90;;;;;;5036286;28;20420;-68
2021/07/04 04:56:34;;;;;;;3.33;3.03;;;19.20;99.90;;;;;;5035835;28;20404;-68
2021/07/04 04:59:00;;;;;;;3.87;3.50;;;19.20;99.90;;;;;;5035542;28;20478;-68
2021/07/04 05:01:28;;;;;;;3.67;2.90;;;19.20;99.90;;;;;;5040976;28;20553;-68
2021/07/04 05:03:57;;;;;;;3.93;2.87;;;19.30;99.90;;;;;;5056083;28;20514;-67
2021/07/04 05:06:22;;;;;;;3.70;3.37;;;19.30;99.90;;;;;;5055118;28;20491;-68
2021/07/04 05:08:48;;;;;;;3.03;2.83;;;19.30;99.90;;;;;;5055528;28;20586;-68
2021/07/04 05:11:14;;;;;;;3.57;3.37;;;19.30;99.90;;;;;;5055248;28;20188;-68
2021/07/04 05:13:40;;;;;;;2.93;2.73;;;19.30;99.90;;;;;;5055044;28;20192;-68
2021/07/04 05:16:06;;;;;;;3.23;3.00;;;19.20;99.90;;;;;;5055840;28;20630;-68
2021/07/04 05:18:33;;;;;;;3.17;2.97;;;19.20;99.90;;;;;;5055325;28;20424;-68
2021/07/04 05:20:59;;;;;;;2.97;2.30;;;19.20;99.90;;;;;;5055964;28;20856;-68
2021/07/04 05:23:25;;;;;;;3.80;3.30;;;19.30;99.90;;;;;;5055587;28;20458;-68
2021/07/04 05:25:53;;;;;;;3.00;2.60;;;19.40;99.90;;;;;;5041184;28;20421;-68
2021/07/04 05:28:19;;;;;;;2.37;2.17;;;19.50;99.90;;;;;;5035217;28;20881;-68
2021/07/04 05:30:45;;;;;;;3.17;2.87;;;19.60;99.90;;;;;;5034195;28;20910;-68
2021/07/04 05:33:11;;;;;;;3.37;2.63;;;19.70;99.90;;;;;;5035131;28;20428;-68
2021/07/04 05:35:39;;;;;;;2.60;2.30;;;19.90;99.90;;;;;;5035180;28;20207;-67
2021/07/04 05:38:04;;;;;;;4.37;2.93;;;19.90;99.90;;;;;;5035065;28;20652;-68
2021/07/04 05:40:30;;;;;;;3.63;3.13;;;20.10;99.90;;;;;;5035255;28;20517;-68
2021/07/04 05:42:55;;;;;;;3.33;2.97;;;20.10;99.90;;;;;;5035138;28;20175;-68
2021/07/04 05:45:24;;;;;;;4.17;3.20;;;20.10;99.90;;;;;;5035244;28;20177;-68
2021/07/04 05:47:51;;;;;;;2.70;2.50;;;20.20;99.90;;;;;;5037459;28;20192;-68
2021/07/04 05:50:16;;;;;;;3.73;3.47;;;20.30;99.90;;;;;;5055126;28;20431;-68
2021/07/04 05:52:42;;;;;;;2.90;2.47;;;20.40;99.90;;;;;;5037983;28;20452;-68
2021/07/04 05:55:08;;;;;;;4.63;2.87;;;20.50;99.90;;;;;;5035098;28;20177;-68
2021/07/04 05:57:34;;;;;;;2.60;2.40;;;20.80;99.90;;;;;;5034419;28;20252;-68
2021/07/04 06:00:00;;;;;;;4.13;3.10;;;21.10;99.90;;;;;;5034805;28;20508;-68
2021/07/04 06:02:25;;;;;;;3.63;3.33;;;21.60;99.90;;;;;;5048946;28;20206;-69
2021/07/04 06:04:51;;;;;;;2.80;2.50;;;22.10;99.90;;;;;;5054839;28;20171;-68
2021/07/04 06:07:17;;;;;;;3.93;2.60;;;22.50;99.90;;;;;;5052588;28;20217;-68
2021/07/04 06:09:42;;;;;;;3.60;3.30;;;22.80;99.90;;;;;;5054441;28;20202;-70
2021/07/04 06:12:08;;;;;;;6.03;3.90;;;23.10;99.90;;;;;;5054769;28;20176;-69
2021/07/04 06:14:34;;;;;;;3.93;3.50;;;23.30;99.90;;;;;;5054131;28;20218;-68
2021/07/04 06:17:00;;;;;;;3.53;3.23;;;23.10;99.90;;;;;;5054560;28;20457;-69
2021/07/04 06:19:25;;;;;;;4.37;3.10;;;22.90;99.90;;;;;;5054081;28;20559;-69
2021/07/04 06:21:51;;;;;;;2.90;2.60;;;22.80;99.90;;;;;;5054372;28;20731;-69
2021/07/04 06:24:16;;;;;;;3.50;2.90;;;22.70;99.90;;;;;;5054028;28;20177;-68
2021/07/04 06:26:42;;;;;;;3.13;2.83;;;22.80;99.90;;;;;;5054217;28;20227;-68
2021/07/04 06:29:08;;;;;;;3.47;3.17;;;22.90;99.90;;;;;;5052326;28;20185;-70
2021/07/04 06:31:33;;;;;;;3.47;3.00;;;23.00;99.90;;;;;;5034373;28;20184;-69
2021/07/04 06:33:59;;;;;;;3.80;3.50;;;23.00;99.90;;;;;;5034231;28;20588;-69
2021/07/04 06:36:29;;;;;;;7.00;3.20;;;23.00;99.90;;;;;;5034382;28;20178;-68
2021/07/04 06:38:55;;;;;;;3.53;3.17;;;23.20;99.90;;;;;;5033857;28;20466;-68
2021/07/04 06:41:22;;;;;;;3.37;3.07;;;23.20;99.90;;;;;;5032649;28;20464;-68
2021/07/04 06:43:47;;;;;;;3.10;2.80;;;23.20;99.90;;;;;;5033989;28;20421;-69
2021/07/04 06:46:14;;;;;;;3.57;3.27;;;23.20;99.90;;;;;;5034006;28;20768;-69
2021/07/04 06:48:40;;;;;;;3.13;2.90;;;23.30;99.90;;;;;;5033894;28;20244;-69
2021/07/04 06:51:07;;;;;;;3.33;2.70;;;23.30;99.90;;;;;;5034103;28;20937;-69
2021/07/04 06:53:33;;;;;;;3.80;3.50;;;23.40;99.90;;;;;;5033860;28;20212;-68
2021/07/04 06:55:58;;;;;;;3.90;3.60;;;23.40;99.90;;;;;;5032547;28;20495;-69
2021/07/04 06:58:24;;;;;;;3.40;3.03;;;23.50;99.90;;;;;;5033255;28;20540;-69
2021/07/04 07:00:50;;;;;;;3.70;3.37;;;23.60;99.90;;;;;;5034212;28;20315;-69
2021/07/04 07:03:15;;;;;;;5.17;4.70;;;23.70;99.90;;;;;;5033957;28;20171;-69
2021/07/04 07:05:42;;;;;;;3.50;3.20;;;23.80;99.90;;;;;;5032717;28;20198;-68
2021/07/04 07:08:08;;;;;;;3.67;3.27;;;24.00;99.90;;;;;;5033200;28;20391;-69
2021/07/04 07:10:34;;;;;;;3.03;2.80;;;24.10;99.90;;;;;;5033510;28;20676;-69
2021/07/04 07:13:00;;;;;;;5.17;3.50;;;24.30;99.90;;;;;;5033472;28;20186;-68
2021/07/04 07:15:25;;;;;;;3.17;2.97;;;24.50;99.90;;;;;;5033534;28;20647;-67
2021/07/04 07:17:51;;;;;;;3.00;2.80;;;24.80;99.90;;;;;;5033163;28;20181;-66
2021/07/04 07:20:17;;;;;;;4.77;4.13;;;25.20;99.90;;;;;;5033202;28;20202;-68
2021/07/04 07:22:43;;;;;;;3.00;2.77;;;25.60;99.90;;;;;;5042096;28;20179;-68
2021/07/04 07:25:10;;;;;;;4.10;3.73;;;26.00;99.90;;;;;;5053505;28;20264;-68
2021/07/04 07:27:35;;;;;;;3.90;3.60;;;26.30;99.90;;;;;;5052817;28;20907;-68
2021/07/04 07:30:03;;;;;;;4.07;3.37;;;26.80;99.40;;;;;;5053241;28;20532;-67
2021/07/04 07:32:29;;;;;;;4.97;4.47;;;27.10;98.50;;;;;;5052959;28;20211;-68
2021/07/04 07:34:55;;;;;;;4.60;4.20;;;27.20;98.00;;;;;;5052983;28;20499;-68
2021/07/04 07:37:22;;;;;;;3.30;3.10;;;27.10;97.70;;;;;;5052330;28;20655;-69
2021/07/04 07:39:48;;;;;;;4.17;3.87;;;27.20;97.10;;;;;;5052965;28;20202;-68
2021/07/04 07:42:14;;;;;;;7.80;4.93;;;27.20;96.70;;;;;;5051746;28;20579;-70
2021/07/04 07:44:40;;;;;;;4.17;3.77;;;27.70;96.60;;;;;;5053103;28;20224;-68
2021/07/04 07:47:05;;;;;;;3.70;3.40;;;28.50;95.50;;;;;;5034922;28;20210;-71
2021/07/04 07:49:31;;;;;;;3.70;2.77;;;29.30;94.40;;;;;;5033010;28;20197;-70
2021/07/04 07:51:59;;;;;;;4.17;3.80;;;30.60;92.20;;;;;;5033748;28;20208;-68
2021/07/04 07:54:26;;;;;;;3.47;3.27;;;31.50;87.40;;;;;;5033080;28;20178;-68
2021/07/04 07:56:52;;;;;;;4.27;3.97;;;31.80;87.30;;;;;;5033142;28;20428;-67
2021/07/04 07:59:19;;;;;;;4.10;3.80;;;32.10;86.00;;;;;;5032835;28;20441;-67
2021/07/04 08:01:45;;;;;;;3.00;2.80;;;32.30;83.90;;;;;;5050123;28;20596;-69
2021/07/04 08:04:11;;;;;;;4.20;3.90;;;32.40;84.50;;;;;;5053103;28;20734;-69
2021/07/04 08:06:37;;;;;;;3.77;3.47;;;32.60;83.00;;;;;;5052856;28;20390;-68
2021/07/04 08:09:03;;;;;;;3.60;3.37;;;32.20;83.00;;;;;;5046556;28;20248;-68
2021/07/04 08:11:28;;;;;;;3.40;3.10;;;31.50;84.10;;;;;;5033097;28;20174;-69
2021/07/04 08:13:54;;;;;;;4.00;3.70;;;30.80;85.40;;;;;;5033018;28;20257;-69
2021/07/04 08:16:20;;;;;;;4.90;3.90;;;30.50;86.70;;;;;;5033201;28;20579;-69
2021/07/04 08:18:45;;;;;;;3.50;3.20;;;30.60;87.00;;;;;;5032488;28;20213;-69
2021/07/04 08:21:11;;;;;;;3.57;3.27;;;31.30;87.00;;;;;;5033095;28;20675;-69
2021/07/04 08:23:37;;;;;;;8.50;3.90;;;32.40;83.50;;;;;;5033060;28;20232;-68
2021/07/04 08:26:03;;;;;;;4.20;3.90;;;33.60;80.80;;;;;;5033032;28;20621;-68
2021/07/04 08:28:28;;;;;;;4.20;3.90;;;34.40;77.70;;;;;;5032602;28;20639;-69
2021/07/04 08:30:54;;;;;;;3.47;3.27;;;34.80;74.80;;;;;;5052336;28;20174;-70
2021/07/04 08:33:20;;;;;;;3.83;3.60;;;35.10;73.40;;;;;;5051416;28;20239;-69
2021/07/04 08:35:45;;;;;;;4.20;4.00;;;35.70;69.50;;;;;;5052778;28;20184;-70
2021/07/04 08:38:11;;;;;;;4.27;3.97;;;36.40;66.70;;;;;;5050757;28;20185;-69
2021/07/04 08:40:37;;;;;;;4.07;3.77;;;37.00;64.40;;;;;;5052609;28;20210;-70
2021/07/04 08:43:04;;;;;;;4.40;4.10;;;37.40;62.70;;;;;;5052486;28;20166;-70
2021/07/04 08:45:35;;;;;;;3.73;3.53;;;37.80;60.30;;;;;;5052822;28;20591;-69
2021/07/04 08:48:00;;;;;;;3.60;3.40;;;38.00;59.70;;;;;;5053472;28;20779;-68
2021/07/04 08:50:26;;;;;;;3.57;3.30;;;38.20;58.90;;;;;;5056017;28;20420;-69
2021/07/04 08:52:52;;;;;;;3.70;3.50;;;37.90;58.40;;;;;;5045993;28;20243;-70
2021/07/04 08:55:18;;;;;;;4.40;4.10;;;37.70;58.70;;;;;;5036315;28;20648;-69
2021/07/04 08:57:44;;;;;;;3.63;3.40;;;37.20;59.30;;;;;;5035657;28;20201;-70
2021/07/04 09:00:16;;;;;;;4.40;4.00;;;36.60;59.10;;;;;;5036075;28;20433;-69
2021/07/04 09:02:42;;;;;;;4.00;3.07;;;36.30;58.80;;;;;;5036163;28;20435;-69
2021/07/04 09:05:09;;;;;;;3.43;3.23;;;36.20;58.20;;;;;;5035919;28;20405;-71
2021/07/04 09:07:36;;;;;;;3.10;2.90;;;36.50;56.40;;;;;;5035517;28;20400;-68
2021/07/04 09:10:10;;;;;;;3.10;2.90;;;36.40;56.60;;;;;;5034534;28;20421;-69
2021/07/04 09:12:40;;;;;;;3.00;2.80;;;36.40;57.80;;;;;;5035856;28;20478;-67
2021/07/04 09:15:14;;;;;;;3.60;3.40;;;36.30;58.80;;;;;;5037672;28;20390;-68
2021/07/04 09:17:44;;;;;;;4.50;3.27;;;35.80;57.80;;;;;;5055331;28;20404;-70
2021/07/04 09:20:21;;;;;;;3.53;3.20;;;34.90;58.50;;;;;;5055239;28;20432;-68
2021/07/04 09:22:51;;;;;;;4.17;3.77;;;34.00;59.50;;;;;;5055579;28;20423;-69
2021/07/04 09:25:23;;;;;;;3.37;3.07;;;33.10;62.10;;;;;;5055605;28;20896;-68
2021/07/04 09:28:11;;;;;;;3.60;3.30;;;32.30;63.80;;;;;;5055154;28;20495;-70
2021/07/04 09:30:42;;;;;;;3.30;3.10;;;31.50;66.90;;;;;;5054971;28;20474;-68
2021/07/04 09:33:16;;;;;;;3.57;3.37;;;30.90;68.30;;;;;;5055491;28;20382;-69
2021/07/04 09:36:01;;;;;;;3.90;3.60;;;30.30;70.80;;;;;;5055514;28;20377;-69
2021/07/04 09:38:41;;;;;;;3.43;3.23;;;29.80;73.10;;;;;;5054714;28;20383;-69
2021/07/04 09:41:13;;;;;;;2.97;2.77;;;29.40;75.10;;;;;;5055509;28;20572;-70
2021/07/04 09:43:40;;;;;;;3.33;3.03;;;29.00;75.60;;;;;;5055158;28;20481;-68
2021/07/04 09:46:08;;;;;;;3.37;3.10;;;28.80;75.60;;;;;;5040663;28;20406;-67
2021/07/04 09:48:33;;;;;;;3.17;2.37;;;29.30;75.20;;;;;;5034549;28;20409;-69
2021/07/04 09:51:10;;;;;;;3.90;3.60;;;30.20;73.60;;;;;;5035294;28;20734;-68
2021/07/04 09:53:49;;;;;;;3.20;3.00;;;31.10;71.00;;;;;;5034999;28;20648;-67
2021/07/04 09:56:22;;;;;;;3.07;2.87;;;31.60;68.00;;;;;;5034846;28;20893;-68
2021/07/04 09:58:50;;;;;;;2.97;2.77;;;31.80;68.30;;;;;;5033459;28;20459;-69
2021/07/04 10:01:39;;;;;;;2.90;2.70;;;31.40;67.00;;;;;;5034760;28;20452;-69
2021/07/04 10:04:08;;;;;;;2.80;2.60;;;31.20;66.90;;;;;;5035270;28;20424;-69
2021/07/04 10:06:51;;;;;;;2.57;2.37;;;30.90;67.70;;;;;;5041903;28;20387;-69
2021/07/04 10:09:18;;;;;;;2.30;2.20;;;30.80;66.70;;;;;;5054313;28;20455;-69
2021/07/04 10:11:44;;;;;;;3.07;2.87;;;30.70;66.90;;;;;;5054757;28;20379;-70
2021/07/04 10:14:10;;;;;;;2.70;2.50;;;30.70;66.70;;;;;;5054782;28;20410;-69
2021/07/04 10:16:37;;;;;;;2.67;2.47;;;30.90;66.10;;;;;;5053248;28;20386;-69
2021/07/04 10:19:04;;;;;;;2.70;2.47;;;31.50;65.90;;;;;;5053988;28;20198;-68
2021/07/04 10:21:34;;;;;;;2.70;2.53;;;32.20;64.50;;;;;;5052766;28;20426;-70
2021/07/04 10:24:00;;;;;;;3.30;3.10;;;32.80;63.00;;;;;;5054504;28;20450;-69
2021/07/04 10:26:28;;;;;;;3.23;2.93;;;33.30;65.90;;;;;;5054298;28;20400;-69
2021/07/04 10:28:58;;;;;;;2.77;2.57;;;33.40;65.10;;;;;;5053776;28;20435;-69
2021/07/04 10:31:24;;;;;;;3.10;2.83;;;33.20;63.60;;;;;;5054224;28;20408;-70
2021/07/04 10:34:14;;;;;;;3.23;3.03;;;32.70;64.80;;;;;;5054017;28;20470;-70
2021/07/04 10:36:52;;;;;;;2.90;2.70;;;32.40;66.80;;;;;;5041846;28;20784;-71
2021/07/04 10:39:18;;;;;;;2.90;2.70;;;32.20;66.20;;;;;;5033671;28;20791;-69
2021/07/04 10:41:59;;;;;;;4.17;3.10;;;32.00;65.40;;;;;;5034134;28;20457;-69
2021/07/04 10:44:41;;;;;;;3.43;3.17;;;31.70;67.50;;;;;;5034017;28;20500;-69
2021/07/04 10:47:09;;;;;;;6.10;3.43;;;31.20;69.00;;;;;;5033951;28;20375;-69
2021/07/04 10:49:47;;;;;;;11.93;3.23;;;30.80;70.20;;;;;;5033774;28;20414;-69
2021/07/04 10:52:34;;;;;;;2.90;2.70;;;30.40;70.80;;;;;;5033955;28;20437;-70
2021/07/04 10:55:00;;;;;;;3.80;3.37;;;30.00;72.00;;;;;;5033997;28;20470;-70
2021/07/04 10:57:31;;;;;;;3.00;2.83;;;29.60;74.20;;;;;;5033479;28;20445;-69
2021/07/04 11:02:46;;;;;;;3.93;3.50;;;29.00;75.00;;;;;;5033763;28;20972;-70
2021/07/04 11:05:17;;;;;;;3.13;2.90;;;28.50;77.10;;;;;;5033888;28;20405;-68
2021/07/04 11:07:52;;;;;;;2.97;2.77;;;28.20;77.50;;;;;;5049417;28;20424;-70
2021/07/04 11:10:23;;;;;;;2.90;2.60;;;28.00;79.20;;;;;;5053331;28;20933;-70
2021/07/04 11:12:51;;;;;;;3.27;2.97;;;27.90;81.20;;;;;;5053656;28;20371;-68
2021/07/04 11:15:20;;;;;;;2.97;2.73;;;28.00;80.60;;;;;;5053561;28;20407;-70
2021/07/04 11:17:55;;;;;;;2.53;2.33;;;28.00;79.00;;;;;;5053189;28;20405;-69
2021/07/04 11:20:22;;;;;;;2.60;2.40;;;27.90;78.20;;;;;;5053142;28;20432;-70
2021/07/04 11:22:58;;;;;;;3.13;2.80;;;28.00;78.70;;;;;;5052951;28;20426;-69
2021/07/04 11:25:25;;;;;;;2.63;2.43;;;28.00;79.70;;;;;;5053278;28;20816;-71
2021/07/04 11:28:16;;;;;;;3.50;3.30;;;28.00;78.60;;;;;;5053035;28;20418;-70
2021/07/04 11:31:03;;;;;;;2.40;2.20;;;28.10;79.10;;;;;;5038143;28;20525;-70
2021/07/04 11:33:40;;;;;;;3.00;2.80;;;28.00;79.90;;;;;;5032620;28;20474;-70
2021/07/04 11:36:15;;;;;;;2.43;2.23;;;27.90;80.10;;;;;;5033319;28;20405;-70
2021/07/04 11:38:45;;;;;;;2.40;2.30;;;27.80;79.70;;;;;;5033030;28;20448;-69
2021/07/04 11:41:32;;;;;;;3.40;3.10;;;27.80;77.80;;;;;;5033546;28;20938;-69
2021/07/04 11:44:19;;;;;;;2.47;2.27;;;27.90;77.10;;;;;;5035870;28;20396;-70
2021/07/04 11:46:47;;;;;;;2.97;2.77;;;28.00;78.40;;;;;;5053274;28;20432;-70
2021/07/04 11:49:24;;;;;;;2.70;2.50;;;28.10;76.80;;;;;;5052876;28;20398;-70
2021/07/04 11:51:58;;;;;;;2.70;2.33;;;28.10;77.40;;;;;;5053257;28;20390;-69
2021/07/04 11:54:32;;;;;;;3.40;3.10;;;28.00;79.10;;;;;;5051753;28;20429;-69
2021/07/04 11:59:53;;;;;;;5.50;5.10;;;27.90;78.10;;;;;;5053180;28;20461;-70
2021/07/04 12:02:19;;;;;;;3.60;3.30;;;27.90;79.10;;;;;;5053049;28;20476;-69
2021/07/04 12:04:45;;;;;;;4.97;4.67;;;27.70;79.70;;;;;;5053369;28;20462;-70
2021/07/04 12:07:13;;;;;;;5.60;3.87;;;27.60;80.50;;;;;;5049862;28;20194;-70
2021/07/04 12:09:47;;;;;;;2.63;2.43;;;27.70;81.70;;;;;;5032247;28;20437;-70
2021/07/04 12:12:31;;;;;;;3.20;2.90;;;27.60;79.20;;;;;;5033410;28;20409;-70
2021/07/04 12:15:08;;;;;;;2.60;2.40;;;27.60;80.40;;;;;;5031898;28;20478;-70
2021/07/04 12:17:38;;;;;;;2.40;2.20;;;27.50;79.70;;;;;;5031591;28;20515;-69
2021/07/04 12:20:12;;;;;;;2.60;2.50;;;27.40;80.80;;;;;;5032842;28;20432;-68
2021/07/04 12:23:00;;;;;;;2.60;2.40;;;27.30;80.70;;;;;;5035540;28;20467;-71
2021/07/04 12:25:42;;;;;;;2.90;2.70;;;27.10;82.80;;;;;;5036878;28;20420;-69
2021/07/04 12:28:18;;;;;;;15.67;13.77;;;26.90;84.50;;;;;;5036305;28;20742;-69
2021/07/04 12:30:46;;;;;;;4.53;4.07;;;26.80;86.50;;;;;;5042213;28;20438;-71
2021/07/04 12:33:27;;;;;;;3.23;2.93;;;26.80;86.10;;;;;;5056669;28;20397;-69
2021/07/04 12:36:00;;;;;;;2.73;2.53;;;26.70;84.60;;;;;;5056656;28;20509;-69
2021/07/04 12:38:37;;;;;;;2.47;2.27;;;26.60;83.40;;;;;;5056052;28;20575;-69
2021/07/04 12:41:33;;;;;;;3.70;3.40;;;26.70;85.00;;;;;;5056411;28;20519;-70
2021/07/04 12:43:58;;;;;;;3.30;2.87;;;26.90;86.80;;;;;;5056004;28;20426;-68
2021/07/04 12:46:28;;;;;;;3.67;3.37;;;27.00;87.30;;;;;;5042606;28;20450;-69
2021/07/04 12:48:56;;;;;;;3.43;3.17;;;27.00;87.90;;;;;;5036099;28;20190;-67
2021/07/04 12:51:38;;;;;;;7.23;2.73;;;27.10;89.00;;;;;;5036469;28;20731;-68
2021/07/04 12:54:20;;;;;;;3.30;3.10;;;26.90;89.40;;;;;;5043166;28;20772;-69
2021/07/04 12:56:50;;;;;;;3.80;3.50;;;26.90;89.90;;;;;;5055977;28;20418;-70